.
WxDataArchive / Data Records for 2015-08-15
2015-08-14 August 2015 2015-08-16

Data Records for Saturday, 15 August 2015

Time	Temp	Chill	HIndex	Humid	Dewpt	 Wind 	HiWind	WindDir	Rain 	Barom
-----	----	-----	------	-----	-----	------	------	-------	-----	-----
00:00	76.0	76.0	77.0	80	69.4	0	0	---	0.00	30.037 
00:05	76.0	76.0	77.0	80	69.4	0	0	---	0.00	30.037 
00:10	75.3	75.3	76.2	78	68.0	3	10	90	0.00	30.037 
00:15	74.2	74.2	74.2	62	60.3	2	7	90	0.00	30.053 
00:20	73.5	73.5	73.5	61	59.2	3	6	90	0.00	30.053 
00:25	72.8	72.8	72.8	62	59.0	2	6	90	0.00	30.053 
00:30	71.8	71.8	71.8	65	59.4	1	7	112	0.00	30.070 
00:35	70.9	70.9	70.9	67	59.4	2	10	90	0.00	30.070 
00:40	70.3	70.3	70.3	70	60.0	2	5	90	0.00	30.070 
00:45	69.3	69.3	69.3	74	60.6	3	7	90	0.00	30.081 
00:50	68.4	68.4	68.4	76	60.5	1	5	112	0.00	30.081 
00:55	67.8	67.8	67.8	78	60.7	1	3	135	0.00	30.081 
01:00	67.3	67.3	67.3	81	61.3	1	5	45	0.04	30.122 
01:05	66.4	66.4	66.4	84	61.4	1	4	112	0.12	30.122 
01:10	65.6	65.6	65.6	87	61.6	2	6	112	0.03	30.122 
01:15	65.2	65.2	65.2	89	61.9	2	5	90	0.00	30.103 
01:20	64.8	64.8	64.8	90	61.8	1	4	90	0.01	30.103 
01:25	64.7	64.7	64.7	91	62.0	1	3	90	0.00	30.103 
01:30	64.7	64.7	64.7	91	62.0	0	1	90	0.00	30.119 
01:35	64.8	64.8	64.8	92	62.4	0	1	90	0.01	30.119 
01:40	65.0	65.0	65.0	92	62.6	0	2	90	0.00	30.119 
01:45	64.8	64.8	64.8	92	62.4	0	0	---	0.00	30.109 
01:50	64.8	64.8	64.8	92	62.4	0	1	90	0.01	30.109 
01:55	64.7	64.7	64.7	92	62.3	0	0	---	0.00	30.109 
02:00	64.7	64.7	64.7	93	62.6	0	0	---	0.01	30.119 
02:05	64.7	64.7	64.7	93	62.6	0	1	90	0.00	30.119 
02:10	64.7	64.7	64.7	93	62.6	0	0	---	0.00	30.119 
02:15	64.7	64.7	64.7	93	62.6	0	1	90	0.00	30.132 
02:20	64.7	64.7	64.7	93	62.6	0	1	90	0.01	30.132 
02:25	64.7	64.7	64.7	93	62.6	0	0	---	0.10	30.132 
02:30	64.7	64.7	64.7	93	62.6	0	0	---	0.04	30.121 
02:35	64.7	64.7	64.7	94	62.9	0	0	---	0.04	30.121 
02:40	64.7	64.7	64.7	94	62.9	0	0	---	0.05	30.121 
02:45	64.8	64.8	64.8	94	63.0	0	1	90	0.03	30.125 
02:50	64.7	64.7	64.7	94	62.9	0	0	---	0.00	30.125 
02:55	64.8	64.8	64.8	94	63.0	0	1	90	0.00	30.125 
03:00	65.0	65.0	65.0	94	63.2	0	1	90	0.03	30.104 
03:05	65.0	65.0	65.0	94	63.2	0	1	90	0.07	30.104 
03:10	64.8	64.8	64.8	94	63.0	0	0	---	0.02	30.104 
03:15	64.7	64.7	64.7	94	62.9	0	0	---	0.00	30.082 
03:20	64.7	64.7	64.7	94	62.9	0	1	90	0.01	30.082 
03:25	64.5	64.5	64.5	94	62.7	0	4	90	0.00	30.082 
03:30	64.7	64.7	64.7	95	63.2	0	2	90	0.02	30.056 
03:35	64.7	64.7	64.7	94	62.9	2	4	90	0.01	30.056 
03:40	64.7	64.7	64.7	94	62.9	1	3	90	0.00	30.056 
03:45	64.7	64.7	64.7	94	62.9	0	1	90	0.01	30.068 
03:50	64.7	64.7	64.7	95	63.2	0	1	90	0.00	30.068 
03:55	64.7	64.7	64.7	95	63.2	0	1	90	0.00	30.068 
04:00	64.7	64.7	64.7	95	63.2	0	2	90	0.00	30.069 
04:05	64.8	64.8	64.8	95	63.3	0	1	90	0.01	30.069 
04:10	64.8	64.8	64.8	95	63.3	0	1	90	0.00	30.069 
04:15	64.8	64.8	64.8	95	63.3	0	1	90	0.00	30.069 
04:20	64.8	64.8	64.8	95	63.3	0	0	---	0.00	30.069 
04:25	64.8	64.8	64.8	95	63.3	0	0	---	0.00	30.069 
04:30	64.8	64.8	64.8	95	63.3	0	0	---	0.01	30.061 
04:35	64.8	64.8	64.8	95	63.3	0	1	90	0.00	30.061 
04:40	64.8	64.8	64.8	95	63.3	0	1	90	0.01	30.061 
04:45	64.8	64.8	64.8	95	63.3	0	0	---	0.00	30.067 
04:50	65.0	65.0	65.0	95	63.5	0	1	90	0.00	30.067 
04:55	65.0	65.0	65.0	95	63.5	0	1	90	0.00	30.067 
05:00	65.0	65.0	65.0	95	63.5	0	0	---	0.00	30.059 
05:05	65.0	65.0	65.0	95	63.5	0	0	---	0.00	30.059 
05:10	65.0	65.0	65.0	95	63.5	0	0	---	0.01	30.059 
05:15	65.0	65.0	65.0	95	63.5	0	1	90	0.00	30.056 
05:20	65.0	65.0	65.0	95	63.5	0	0	---	0.00	30.056 
05:25	65.0	65.0	65.0	95	63.5	0	0	---	0.00	30.056 
05:30	65.0	65.0	65.0	95	63.5	0	1	90	0.00	30.057 
05:35	65.0	65.0	65.0	95	63.5	0	1	90	0.00	30.057 
05:40	65.0	65.0	65.0	95	63.5	0	0	---	0.00	30.057 
05:45	65.0	65.0	65.0	95	63.5	0	1	90	0.00	30.057 
05:50	65.0	65.0	65.0	95	63.5	0	1	90	0.00	30.057 
05:55	65.0	65.0	65.0	95	63.5	0	1	90	0.00	30.057 
06:00	65.0	65.0	65.0	95	63.5	0	1	90	0.00	30.059 
06:05	64.8	64.8	64.8	95	63.3	0	1	90	0.00	30.059 
06:10	64.8	64.8	64.8	95	63.3	0	2	90	0.00	30.059 
06:15	64.8	64.8	64.8	96	63.6	0	1	90	0.00	30.060 
06:20	65.0	65.0	65.0	96	63.8	0	2	90	0.00	30.060 
06:25	65.0	65.0	65.0	96	63.8	0	1	90	0.00	30.060 
06:30	65.0	65.0	65.0	96	63.8	0	1	90	0.00	30.070 
06:35	65.0	65.0	65.0	96	63.8	0	0	---	0.00	30.070 
06:40	65.0	65.0	65.0	96	63.8	0	0	---	0.00	30.070 
06:45	64.8	64.8	64.8	96	63.6	0	0	---	0.00	30.073 
06:50	64.8	64.8	64.8	96	63.6	0	0	---	0.00	30.073 
06:55	65.0	65.0	65.0	96	63.8	0	1	90	0.00	30.073 
07:00	65.0	65.0	65.0	96	63.8	0	0	---	0.00	30.076 
07:05	65.0	65.0	65.0	96	63.8	0	0	---	0.00	30.076 
07:10	65.0	65.0	65.0	96	63.8	0	0	---	0.00	30.076 
07:15	65.0	65.0	65.0	96	63.8	0	0	---	0.00	30.087 
07:20	65.0	65.0	65.0	96	63.8	0	0	---	0.00	30.087 
07:25	65.0	65.0	65.0	96	63.8	0	0	---	0.00	30.087 
07:30	65.2	65.2	65.2	96	64.0	0	0	---	0.00	30.086 
07:35	65.2	65.2	65.2	96	64.0	0	0	---	0.00	30.086 
07:40	65.2	65.2	65.2	96	64.0	0	0	---	0.00	30.086 
07:45	65.3	65.3	65.3	96	64.1	0	0	---	0.00	30.085 
07:50	65.3	65.3	65.3	96	64.1	0	0	---	0.00	30.085 
07:55	65.3	65.3	65.3	96	64.1	0	1	292	0.00	30.085 
08:00	65.3	65.3	65.3	96	64.1	0	0	---	0.00	30.091 
08:05	65.5	65.5	65.5	96	64.3	0	0	---	0.00	30.091 
08:10	65.5	65.5	65.5	96	64.3	0	1	292	0.00	30.091 
08:15	65.5	65.5	65.5	96	64.3	0	1	292	0.00	30.092 
08:20	65.5	65.5	65.5	96	64.3	0	1	292	0.00	30.092 
08:25	65.6	65.6	65.6	96	64.4	0	0	---	0.00	30.092 
08:30	65.6	65.6	65.6	96	64.4	0	1	292	0.00	30.091 
08:35	65.8	65.8	65.8	96	64.6	0	1	292	0.00	30.091 
08:40	65.8	65.8	65.8	96	64.6	0	1	292	0.00	30.091 
08:45	66.0	66.0	66.0	96	64.8	0	0	---	0.00	30.093 
08:50	66.1	66.1	66.1	96	64.9	0	1	292	0.00	30.093 
08:55	66.3	66.3	66.3	96	65.1	0	1	292	0.00	30.093 
09:00	66.4	66.4	66.4	96	65.2	0	0	---	0.00	30.094 
09:05	66.4	66.4	66.4	96	65.2	0	0	---	0.00	30.094 
09:10	66.4	66.4	66.4	96	65.2	0	1	292	0.00	30.094 
09:15	66.6	66.6	66.6	96	65.4	0	0	---	0.00	30.105 
09:20	66.8	66.8	66.8	96	65.6	0	0	---	0.00	30.105 
09:25	66.8	66.8	66.8	96	65.6	0	1	292	0.00	30.105 
09:30	67.1	67.1	67.1	96	65.9	0	0	---	0.00	30.107 
09:35	66.9	66.9	66.9	96	65.7	0	1	292	0.00	30.107 
09:40	66.8	66.8	66.8	96	65.6	0	1	292	0.00	30.107 
09:45	66.9	66.9	66.9	96	65.7	0	0	---	0.00	30.108 
09:50	67.1	67.1	67.1	96	65.9	0	1	292	0.00	30.108 
09:55	67.3	67.3	67.3	96	66.1	0	1	292	0.00	30.108 
10:00	67.4	67.4	67.4	96	66.2	0	1	292	0.00	30.114 
10:05	67.6	67.6	67.6	96	66.4	0	1	292	0.00	30.114 
10:10	67.9	67.9	67.9	96	66.7	0	0	---	0.00	30.114 
10:15	68.1	68.1	68.1	96	66.9	0	1	292	0.00	30.119 
10:20	68.4	68.4	68.4	96	67.2	0	0	---	0.00	30.119 
10:25	68.6	68.6	68.6	95	67.1	0	1	292	0.00	30.119 
10:30	69.1	69.1	69.1	96	67.9	0	0	---	0.00	30.116 
10:35	69.4	69.4	69.4	95	67.9	0	0	---	0.00	30.116 
10:40	69.9	69.9	69.9	95	68.4	0	1	292	0.00	30.116 
10:45	69.9	69.9	69.9	94	68.1	0	2	292	0.00	30.121 
10:50	70.3	70.3	70.3	93	68.2	0	1	292	0.00	30.121 
10:55	70.8	70.8	70.8	92	68.4	0	3	292	0.00	30.121 
11:00	70.9	70.9	70.9	90	67.8	1	3	292	0.00	30.120 
11:05	71.5	71.5	71.5	88	67.7	0	2	292	0.00	30.120 
11:10	72.1	72.1	72.1	87	68.0	0	2	292	0.00	30.120 
11:15	72.8	72.8	72.8	84	67.7	0	1	292	0.00	30.120 
11:20	73.3	73.3	73.3	82	67.5	0	2	292	0.00	30.120 
11:25	74.0	74.0	74.0	81	67.8	0	3	292	0.00	30.120 
11:30	73.7	73.7	73.7	76	65.6	2	4	292	0.00	30.125 
11:35	73.9	73.9	73.9	74	65.1	0	2	292	0.00	30.125 
11:40	74.2	74.2	74.2	74	65.4	0	1	292	0.00	30.125 
11:45	74.6	74.6	74.6	73	65.4	0	1	292	0.00	30.124 
11:50	74.9	74.9	74.9	73	65.6	0	2	292	0.00	30.124 
11:55	75.1	75.1	76.8	70	64.6	0	2	292	0.00	30.124 
12:00	75.3	75.3	77.0	69	64.4	1	4	292	0.00	30.125 
12:05	75.3	75.3	77.1	68	64.0	1	4	292	0.00	30.125 
12:10	75.1	75.1	76.8	70	64.6	1	3	292	0.00	30.125 
12:15	75.3	75.3	77.0	70	64.8	1	5	292	0.00	30.125 
12:20	75.1	75.1	76.9	69	64.2	1	3	292	0.00	30.125 
12:25	75.1	75.1	76.8	70	64.6	1	3	292	0.00	30.125 
12:30	75.3	75.3	77.0	70	64.8	0	3	292	0.00	30.127 
12:35	75.3	75.3	77.0	69	64.4	1	3	292	0.00	30.127 
12:40	75.4	75.4	77.1	69	64.5	0	2	292	0.00	30.127 
12:45	75.8	75.8	77.6	68	64.5	0	1	292	0.00	30.128 
12:50	76.1	76.1	77.8	69	65.2	0	1	292	0.00	30.128 
12:55	76.1	76.1	77.8	68	64.8	0	3	292	0.00	30.128 
13:00	76.1	76.1	77.8	68	64.8	0	2	292	0.00	30.127 
13:05	76.3	76.3	78.0	68	64.9	0	2	292	0.00	30.127 
13:10	76.7	76.7	78.5	68	65.3	0	2	292	0.00	30.127 
13:15	76.8	76.8	78.6	66	64.6	1	4	292	0.00	30.123 
13:20	77.2	77.2	79.0	67	65.4	0	2	292	0.00	30.123 
13:25	77.4	77.4	79.2	68	66.0	0	3	292	0.00	30.123 
13:30	77.9	77.9	79.8	68	66.5	0	2	292	0.00	30.119 
13:35	77.9	77.9	79.8	66	65.6	1	4	292	0.00	30.119 
13:40	77.9	77.9	79.7	65	65.2	0	2	292	0.00	30.119 
13:45	78.1	78.1	80.0	67	66.2	1	3	292	0.00	30.116 
13:50	78.3	78.3	80.2	65	65.5	0	2	292	0.00	30.116 
13:55	78.8	78.8	80.9	67	66.9	0	1	292	0.00	30.116 
14:00	79.0	79.0	80.9	63	65.3	0	2	292	0.00	30.111 
14:05	79.4	79.4	81.6	65	66.6	0	1	292	0.00	30.111 
14:10	79.9	79.9	82.2	65	67.1	0	0	---	0.00	30.111 
14:15	80.5	80.5	82.8	63	66.7	0	1	292	0.00	30.110 
14:20	80.5	80.5	82.4	60	65.3	0	3	292	0.00	30.110 
14:25	80.9	80.9	83.1	61	66.2	0	4	292	0.00	30.110 
14:30	81.1	81.1	83.3	61	66.4	0	3	292	0.00	30.105 
14:35	81.2	81.2	83.0	58	65.0	0	2	292	0.00	30.105 
14:40	81.4	81.4	83.3	58	65.2	0	1	292	0.00	30.105 
14:45	81.6	81.6	83.9	60	66.3	0	3	292	0.00	30.099 
14:50	82.0	82.0	84.1	58	65.7	0	1	292	0.00	30.099 
14:55	82.6	82.6	84.7	57	65.8	0	0	---	0.00	30.099 
15:00	83.0	83.0	84.7	54	64.6	0	1	292	0.00	30.092 
15:05	82.8	82.8	83.8	51	62.8	0	1	292	0.00	30.092 
15:10	82.8	82.8	84.0	52	63.3	0	1	292	0.00	30.092 
15:15	82.4	82.4	84.2	56	65.1	0	2	292	0.00	30.089 
15:20	82.6	82.6	84.1	54	64.2	0	2	292	0.00	30.089 
15:25	82.2	82.2	83.6	54	63.9	1	3	292	0.00	30.089 
15:30	82.2	82.2	83.8	55	64.4	0	2	22	0.00	30.087 
15:35	82.2	82.2	84.0	56	64.9	1	4	22	0.00	30.087 
15:40	82.4	82.4	84.1	55	64.6	0	2	22	0.00	30.087 
15:45	82.8	82.8	85.2	58	66.5	0	1	22	0.00	30.080 
15:50	83.0	83.0	84.7	54	64.6	0	1	22	0.00	30.080 
15:55	83.2	83.2	84.5	52	63.7	0	1	22	0.00	30.080 
16:00	83.6	83.6	85.2	53	64.6	0	1	22	0.00	30.074 
16:05	83.8	83.8	85.7	54	65.3	0	2	22	0.00	30.074 
16:10	84.0	84.0	86.3	55	66.1	0	1	22	0.00	30.074 
16:15	83.8	83.8	85.7	54	65.3	0	2	22	0.00	30.072 
16:20	83.8	83.8	86.0	55	65.9	0	1	22	0.00	30.072 
16:25	84.0	84.0	86.3	55	66.1	0	0	---	0.00	30.072 
16:30	84.3	84.3	86.2	53	65.3	0	1	22	0.00	30.067 
16:35	84.7	84.7	86.8	53	65.6	0	2	22	0.00	30.067 
16:40	84.7	84.7	86.8	53	65.6	0	2	68	0.00	30.067 
16:45	84.5	84.5	86.3	52	64.9	0	1	68	0.00	30.058 
16:50	84.5	84.5	86.5	53	65.5	0	2	45	0.00	30.058 
16:55	84.5	84.5	86.5	53	65.5	0	1	45	0.00	30.058 
17:00	84.7	84.7	86.3	51	64.5	0	1	45	0.00	30.056 
17:05	84.9	84.9	86.3	50	64.2	0	1	45	0.00	30.056 
17:10	84.9	84.9	86.3	50	64.2	0	2	45	0.00	30.056 
17:15	85.1	85.1	86.9	51	64.9	0	1	45	0.00	30.056 
17:20	84.9	84.9	87.1	53	65.8	0	1	45	0.00	30.056 
17:25	84.7	84.7	86.5	52	65.1	0	1	292	0.00	30.056 
17:30	84.7	84.7	86.8	53	65.6	1	2	292	0.00	30.057 
17:35	84.1	84.1	86.2	54	65.6	0	2	158	0.00	30.057 
17:40	84.0	84.0	86.0	54	65.5	0	2	158	0.00	30.057 
17:45	84.0	84.0	86.0	54	65.5	0	1	158	0.00	30.057 
17:50	83.8	83.8	85.7	54	65.3	0	2	158	0.00	30.057 
17:55	83.4	83.4	85.2	54	65.0	0	3	135	0.00	30.057 
18:00	83.4	83.4	85.8	57	66.5	0	1	135	0.00	30.057 
18:05	83.2	83.2	85.8	58	66.9	0	1	135	0.00	30.057 
18:10	82.8	82.8	85.0	57	66.0	0	2	135	0.00	30.057 
18:15	82.6	82.6	84.9	58	66.3	0	2	135	0.00	30.058 
18:20	82.4	82.4	84.8	59	66.6	1	2	135	0.00	30.058 
18:25	81.8	81.8	84.1	60	66.5	2	5	135	0.00	30.058 
18:30	81.6	81.6	83.9	60	66.3	0	5	90	0.00	30.063 
18:35	81.4	81.4	83.8	61	66.6	0	0	---	0.00	30.063 
18:40	81.4	81.4	83.9	62	67.1	0	1	90	0.00	30.063 
18:45	81.4	81.4	83.8	61	66.6	0	2	90	0.00	30.062 
18:50	81.2	81.2	83.2	59	65.5	0	3	90	0.00	30.062 
18:55	81.1	81.1	83.2	60	65.9	0	1	90	0.00	30.062 
19:00	81.1	81.1	83.3	61	66.4	0	0	---	0.00	30.059 
19:05	80.9	80.9	83.1	61	66.2	0	1	90	0.00	30.059 
19:10	80.7	80.7	82.9	62	66.4	0	0	---	0.00	30.059 
19:15	80.5	80.5	82.7	62	66.3	0	0	---	0.00	30.051 
19:20	80.5	80.5	82.5	61	65.8	0	1	90	0.00	30.051 
19:25	80.3	80.3	82.3	61	65.6	0	1	90	0.00	30.051 
19:30	80.3	80.3	82.2	60	65.1	0	1	90	0.00	30.051 
19:35	80.1	80.1	82.0	61	65.4	0	0	---	0.00	30.051 
19:40	80.1	80.1	81.9	60	64.9	0	1	90	0.00	30.051 
19:45	79.9	79.9	81.7	60	64.7	0	1	90	0.00	30.054 
19:50	79.9	79.9	81.8	61	65.2	0	0	---	0.00	30.054 
19:55	79.9	79.9	81.8	61	65.2	0	0	---	0.00	30.054 
20:00	79.8	79.8	81.6	60	64.7	0	1	90	0.00	30.061 
20:05	79.8	79.8	81.7	61	65.1	0	0	---	0.00	30.061 
20:10	79.6	79.6	81.5	62	65.4	0	0	---	0.00	30.061 
20:15	79.6	79.6	81.5	62	65.4	0	0	---	0.00	30.064 
20:20	79.4	79.4	81.3	62	65.2	0	0	---	0.00	30.064 
20:25	79.4	79.4	81.3	62	65.2	0	0	---	0.00	30.064 
20:30	79.2	79.2	81.1	62	65.0	0	0	---	0.00	30.061 
20:35	79.0	79.0	81.0	64	65.8	0	0	---	0.00	30.061 
20:40	78.8	78.8	80.8	65	66.0	0	0	---	0.00	30.061 
20:45	78.5	78.5	80.5	66	66.2	0	0	---	0.00	30.066 
20:50	78.3	78.3	80.3	67	66.4	0	0	---	0.00	30.066 
20:55	77.9	77.9	79.8	68	66.5	0	0	---	0.00	30.066 
21:00	77.7	77.7	79.6	69	66.7	0	0	---	0.00	30.067 
21:05	77.6	77.6	79.5	70	67.0	0	0	---	0.00	30.067 
21:10	77.2	77.2	79.0	71	67.0	0	0	---	0.00	30.067 
21:15	76.8	76.8	78.5	73	67.5	0	0	---	0.00	30.064 
21:20	76.5	76.5	78.1	73	67.2	0	0	---	0.00	30.064 
21:25	76.3	76.3	77.8	74	67.4	0	0	---	0.00	30.064 
21:30	76.0	76.0	77.4	75	67.5	0	0	---	0.00	30.075 
21:35	75.6	75.6	76.9	75	67.1	0	0	---	0.00	30.075 
21:40	75.3	75.3	76.3	77	67.6	0	0	---	0.00	30.075 
21:45	75.1	75.1	76.1	77	67.4	0	0	---	0.00	30.078 
21:50	74.7	74.7	74.7	78	67.4	0	0	---	0.00	30.078 
21:55	74.4	74.4	74.4	78	67.1	0	0	---	0.00	30.078 
22:00	74.0	74.0	74.0	79	67.1	0	0	---	0.00	30.082 
22:05	73.9	73.9	73.9	79	67.0	0	0	---	0.00	30.082 
22:10	73.7	73.7	73.7	80	67.1	0	0	---	0.00	30.082 
22:15	73.5	73.5	73.5	80	66.9	0	0	---	0.00	30.081 
22:20	73.2	73.2	73.2	81	67.0	0	0	---	0.00	30.081 
22:25	73.0	73.0	73.0	82	67.2	0	0	---	0.00	30.081 
22:30	72.8	72.8	72.8	82	67.0	0	0	---	0.00	30.088 
22:35	72.7	72.7	72.7	83	67.2	0	0	---	0.00	30.088 
22:40	72.3	72.3	72.3	84	67.2	0	0	---	0.00	30.088 
22:45	72.1	72.1	72.1	84	67.0	0	0	---	0.00	30.092 
22:50	72.1	72.1	72.1	85	67.3	0	0	---	0.00	30.092 
22:55	72.0	72.0	72.0	85	67.2	0	0	---	0.00	30.092 
23:00	71.8	71.8	71.8	85	67.0	0	0	---	0.00	30.092 
23:05	71.6	71.6	71.6	85	66.8	0	0	---	0.00	30.092 
23:10	71.5	71.5	71.5	86	67.1	0	0	---	0.00	30.092 
23:15	71.3	71.3	71.3	86	66.9	0	0	---	0.00	30.091 
23:20	71.1	71.1	71.1	86	66.7	0	0	---	0.00	30.091 
23:25	70.9	70.9	70.9	87	66.8	0	0	---	0.00	30.091 
23:30	70.8	70.8	70.8	88	67.1	0	0	---	0.00	30.089 
23:35	70.6	70.6	70.6	88	66.9	0	0	---	0.00	30.089 
23:40	70.4	70.4	70.4	88	66.7	0	0	---	0.00	30.089 
23:45	70.3	70.3	70.3	88	66.6	0	0	---	0.00	30.084 
23:50	70.3	70.3	70.3	88	66.6	0	0	---	0.00	30.084 
23:55	70.1	70.1	70.1	89	66.7	0	0	---	0.00	30.084 

CoCoRaHS
IN-AL-39
A2 Web Hosting
Creative Commons License
GoDaddy
search engine by freefind advanced

loaded 2018-11-14 00:10:22 • last modified 2010-11-18 10:43:29
Privacy PolicyDisclaimer
• wx.awcolley.com is powered by PmWiki v.2002016 •
• all content (unless otherwise noted) © 2018 A W Colley